createdAt,value
2019-03-28T00:03:08.185Z,48.04
2019-03-28T00:07:16.618Z,48.26
2019-03-28T00:11:25.552Z,48.04
2019-03-28T00:15:34.747Z,48.03
2019-03-28T00:19:42.912Z,47.48
2019-03-28T00:24:05.116Z,47.34
2019-03-28T00:28:13.990Z,47.08
2019-03-28T00:32:22.109Z,47.07
2019-03-28T00:36:30.853Z,47.19
2019-03-28T00:40:40.689Z,47.42
2019-03-28T00:44:48.906Z,47.31
2019-03-28T00:48:57.970Z,47.33
2019-03-28T00:53:06.381Z,47.47
2019-03-28T00:57:14.620Z,47.16
2019-03-28T01:01:23.209Z,47.54
2019-03-28T01:05:31.450Z,47.26
2019-03-28T01:09:39.785Z,47.30
2019-03-28T01:13:48.302Z,47.50
2019-03-28T01:17:56.920Z,47.77
2019-03-28T01:22:05.157Z,47.83
2019-03-28T01:26:13.575Z,47.20
2019-03-28T01:30:22.311Z,47.25
2019-03-28T01:34:31.343Z,48.12
2019-03-28T01:38:40.573Z,47.54
2019-03-28T01:42:48.804Z,46.99
2019-03-28T01:46:57.645Z,47.26
2019-03-28T01:51:06.787Z,47.42
2019-03-28T01:55:14.990Z,47.25
2019-03-28T01:59:24.227Z,47.61
2019-03-28T02:03:32.349Z,48.38
2019-03-28T02:07:40.469Z,48.84
2019-03-28T02:11:49.279Z,50.40
2019-03-28T02:15:57.717Z,50.32
2019-03-28T02:20:06.461Z,50.03
2019-03-28T02:24:15.206Z,50.08
2019-03-28T02:28:23.619Z,51.00
2019-03-28T02:32:33.803Z,51.44
2019-03-28T02:36:42.939Z,50.42
2019-03-28T02:40:51.467Z,50.21
2019-03-28T02:45:00.666Z,49.95
2019-03-28T02:49:09.440Z,49.91
2019-03-28T02:53:17.641Z,49.91
2019-03-28T02:57:40.094Z,50.43
2019-03-28T03:01:36.565Z,51.87
2019-03-28T03:05:45.054Z,51.37
2019-03-28T03:09:53.506Z,51.53
2019-03-28T03:14:01.818Z,53.81
2019-03-28T03:18:10.043Z,52.67
2019-03-28T03:22:18.887Z,52.44
2019-03-28T03:26:28.118Z,53.67
2019-03-28T03:30:36.557Z,52.96
2019-03-28T03:34:45.171Z,52.62
2019-03-28T03:38:53.303Z,54.50
2019-03-28T03:43:01.908Z,54.76
2019-03-28T03:47:11.162Z,54.63
2019-03-28T03:51:19.393Z,54.38
2019-03-28T03:55:27.830Z,56.07
2019-03-28T03:59:36.217Z,54.99
2019-03-28T04:03:44.350Z,54.69
2019-03-28T04:07:52.888Z,55.32
2019-03-28T04:12:01.092Z,54.58
2019-03-28T04:16:09.308Z,53.74
2019-03-28T04:20:17.724Z,52.83
2019-03-28T04:24:25.960Z,53.18
2019-03-28T04:28:34.877Z,52.96
2019-03-28T04:32:43.624Z,52.55
2019-03-28T04:36:51.852Z,52.62
2019-03-28T04:41:00.767Z,54.18
2019-03-28T04:45:10.446Z,52.22
2019-03-28T04:49:18.877Z,54.98
2019-03-28T04:53:29.616Z,51.21
2019-03-28T04:57:40.767Z,50.38
2019-03-28T05:02:01.002Z,49.87
2019-03-28T05:05:58.997Z,48.50
2019-03-28T05:10:08.793Z,48.75
2019-03-28T05:14:16.990Z,47.61
2019-03-28T05:18:25.724Z,47.22
2019-03-28T05:22:33.943Z,45.85
2019-03-28T05:26:42.456Z,44.08
2019-03-28T05:30:50.895Z,43.20
2019-03-28T05:34:59.218Z,40.46
2019-03-28T05:39:08.358Z,39.95
2019-03-28T05:43:16.777Z,40.88
2019-03-28T05:47:25.067Z,39.75
2019-03-28T05:51:33.438Z,40.05
2019-03-28T05:55:41.942Z,37.90
2019-03-28T05:59:50.170Z,37.90
2019-03-28T06:03:58.909Z,36.42
2019-03-28T06:08:07.230Z,36.18
2019-03-28T06:12:18.895Z,35.11
2019-03-28T06:16:26.611Z,33.22
2019-03-28T06:20:35.046Z,33.17
2019-03-28T06:24:43.681Z,33.12
2019-03-28T06:28:52.647Z,33.10
2019-03-28T06:33:00.816Z,33.04
2019-03-28T06:37:10.488Z,32.63
2019-03-28T06:41:18.709Z,30.88
2019-03-28T06:45:26.927Z,32.06
2019-03-28T06:49:35.381Z,31.76
2019-03-28T06:53:43.575Z,30.59
2019-03-28T06:57:52.016Z,30.64
2019-03-28T07:02:00.744Z,30.34
2019-03-28T07:06:09.555Z,29.44
2019-03-28T07:10:19.656Z,29.72
2019-03-28T07:14:28.319Z,30.14
2019-03-28T07:18:36.761Z,29.54
2019-03-28T07:22:46.106Z,31.11
2019-03-28T07:26:54.967Z,28.66
2019-03-28T07:31:03.176Z,28.79
2019-03-28T07:35:11.807Z,28.97
2019-03-28T07:39:20.131Z,28.18
2019-03-28T07:43:28.882Z,26.72
2019-03-28T07:47:37.697Z,27.21
2019-03-28T07:51:45.799Z,27.98
2019-03-28T07:55:54.141Z,27.47
2019-03-28T08:00:04.480Z,26.27
2019-03-28T08:04:13.244Z,26.33
2019-03-28T08:08:22.091Z,26.72
2019-03-28T08:12:30.887Z,25.82
2019-03-28T08:16:39.333Z,26.29
2019-03-28T08:20:48.260Z,25.74
2019-03-28T08:24:56.804Z,26.27
2019-03-28T08:29:05.297Z,26.53
2019-03-28T08:33:13.949Z,24.50
2019-03-28T08:37:22.373Z,25.23
2019-03-28T08:41:31.195Z,25.14
2019-03-28T08:45:39.740Z,25.34
2019-03-28T08:49:48.069Z,24.46
2019-03-28T08:53:56.588Z,25.07
2019-03-28T08:58:04.836Z,25.46
2019-03-28T09:02:14.076Z,25.26
2019-03-28T09:06:22.811Z,24.49
2019-03-28T09:10:31.178Z,23.89
2019-03-28T09:14:39.534Z,23.92
2019-03-28T09:18:48.148Z,24.63
2019-03-28T09:22:56.782Z,23.34
2019-03-28T09:27:05.307Z,25.36
2019-03-28T09:31:19.714Z,23.19
2019-03-28T09:35:31.434Z,24.91
2019-03-28T09:39:39.715Z,23.97
2019-03-28T09:43:55.022Z,24.13
2019-03-28T09:47:58.209Z,24.83
2019-03-28T09:52:06.796Z,22.81
2019-03-28T09:56:15.443Z,23.87
2019-03-28T10:00:24.153Z,23.42
2019-03-28T10:04:32.502Z,23.93
2019-03-28T10:08:40.913Z,22.55
2019-03-28T10:12:49.327Z,22.46
2019-03-28T10:16:58.098Z,23.48
2019-03-28T10:21:07.839Z,23.83
2019-03-28T10:25:16.369Z,23.15
2019-03-28T10:29:24.871Z,23.59
2019-03-28T10:33:33.203Z,22.80
2019-03-28T10:37:41.843Z,21.70
2019-03-28T10:41:50.381Z,22.70
2019-03-28T10:45:58.770Z,22.70
2019-03-28T10:50:07.562Z,22.69
2019-03-28T10:54:20.375Z,23.81
2019-03-28T10:58:26.423Z,22.13
2019-03-28T11:02:36.283Z,22.13
2019-03-28T11:06:44.511Z,22.28
2019-03-28T11:10:52.898Z,25.54
2019-03-28T11:15:01.363Z,25.93
2019-03-28T11:19:09.867Z,26.03
2019-03-28T11:23:18.285Z,27.05
2019-03-28T11:27:27.226Z,27.58
2019-03-28T11:31:45.601Z,28.53
2019-03-28T11:35:45.524Z,29.01
2019-03-28T11:39:54.353Z,30.38
2019-03-28T11:44:02.466Z,30.17
2019-03-28T11:48:10.886Z,32.00
2019-03-28T11:52:19.710Z,31.76
2019-03-28T11:56:27.956Z,31.38
2019-03-28T12:00:36.564Z,31.04
2019-03-28T12:04:44.899Z,33.42
2019-03-28T12:08:55.936Z,32.22
2019-03-28T12:13:06.037Z,31.50
2019-03-28T12:17:14.276Z,30.68
2019-03-28T12:21:22.595Z,32.75
2019-03-28T12:25:30.826Z,33.56
2019-03-28T12:29:40.144Z,34.11
2019-03-28T12:33:48.978Z,34.33
2019-03-28T12:37:57.910Z,34.66
2019-03-28T12:42:06.149Z,34.73
2019-03-28T12:46:14.985Z,34.68
2019-03-28T12:50:23.632Z,34.18
2019-03-28T12:54:31.925Z,34.25
2019-03-28T12:58:40.472Z,33.60
2019-03-28T13:02:48.956Z,35.34
2019-03-28T13:06:57.192Z,34.24
2019-03-28T13:11:06.133Z,34.17
2019-03-28T13:15:14.669Z,33.44
2019-03-28T13:19:23.078Z,34.24
2019-03-28T13:23:31.912Z,33.56
2019-03-28T13:27:41.047Z,34.48
2019-03-28T13:31:49.483Z,33.99
2019-03-28T13:35:57.994Z,34.16
2019-03-28T13:40:06.999Z,34.46
2019-03-28T13:44:15.858Z,34.30
2019-03-28T13:48:24.617Z,35.04
2019-03-28T13:52:32.840Z,34.71
2019-03-28T13:56:41.305Z,36.37
2019-03-28T14:00:49.794Z,35.71
2019-03-28T14:04:58.532Z,35.50
2019-03-28T14:09:08.470Z,36.24
2019-03-28T14:13:16.907Z,36.42
2019-03-28T14:17:25.707Z,36.63
2019-03-28T14:21:34.174Z,36.82
2019-03-28T14:25:42.385Z,36.97
2019-03-28T14:29:50.917Z,37.14
2019-03-28T14:33:59.835Z,37.97
2019-03-28T14:38:08.054Z,38.31
2019-03-28T14:42:19.553Z,38.71
2019-03-28T14:46:26.655Z,38.79
2019-03-28T14:50:37.024Z,39.63
2019-03-28T14:54:45.640Z,40.02
2019-03-28T14:58:55.389Z,40.15
2019-03-28T15:03:03.911Z,40.87
2019-03-28T15:07:12.067Z,41.33
2019-03-28T15:11:21.406Z,41.42
2019-03-28T15:15:30.119Z,40.90
2019-03-28T15:19:38.569Z,41.88
2019-03-28T15:23:46.870Z,41.85
2019-03-28T15:27:55.715Z,41.42
2019-03-28T15:32:04.129Z,42.36
2019-03-28T15:36:12.588Z,43.06
2019-03-28T15:40:23.330Z,42.65
2019-03-28T15:44:31.604Z,42.80
2019-03-28T15:48:39.875Z,43.15
2019-03-28T15:52:48.630Z,43.91
2019-03-28T15:56:58.654Z,43.86
2019-03-28T16:01:08.213Z,44.54
2019-03-28T16:05:16.764Z,44.25
2019-03-28T16:09:25.913Z,44.33
2019-03-28T16:13:37.389Z,44.38
2019-03-28T16:17:44.716Z,44.59
2019-03-28T16:21:52.904Z,45.18
2019-03-28T16:26:01.568Z,45.69
2019-03-28T16:30:11.189Z,45.83
2019-03-28T16:34:20.033Z,46.04
2019-03-28T16:38:28.346Z,45.61
2019-03-28T16:42:36.652Z,45.47
2019-03-28T16:46:44.907Z,45.60
2019-03-28T16:50:53.155Z,45.53
2019-03-28T16:55:01.642Z,45.17
2019-03-28T16:59:10.173Z,45.10
2019-03-28T17:03:19.522Z,46.84
2019-03-28T17:07:28.758Z,48.56
2019-03-28T17:11:37.596Z,47.84
2019-03-28T17:15:46.124Z,47.00
2019-03-28T17:19:54.539Z,46.53
2019-03-28T17:24:02.875Z,47.44
2019-03-28T17:28:11.596Z,48.70
2019-03-28T17:32:20.441Z,49.03
2019-03-28T17:36:29.152Z,47.78
2019-03-28T17:40:38.013Z,47.22
2019-03-28T17:44:46.401Z,46.58
2019-03-28T17:48:57.500Z,48.55
2019-03-28T17:53:06.232Z,49.33
2019-03-28T17:57:14.573Z,48.31
2019-03-28T18:01:23.445Z,48.50
2019-03-28T18:05:31.919Z,49.47
2019-03-28T18:09:41.679Z,49.23
2019-03-28T18:13:50.640Z,48.62
2019-03-28T18:17:58.917Z,49.48
2019-03-28T18:22:07.464Z,51.06
2019-03-28T18:26:15.811Z,50.00
2019-03-28T18:30:24.986Z,50.88
2019-03-28T18:34:33.136Z,51.10
2019-03-28T18:38:41.443Z,50.32
2019-03-28T18:42:50.109Z,50.36
2019-03-28T18:46:58.625Z,50.87
2019-03-28T18:51:08.089Z,51.95
2019-03-28T18:55:16.926Z,51.96
2019-03-28T18:59:26.257Z,51.32
2019-03-28T19:03:34.842Z,51.38
2019-03-28T19:07:43.530Z,51.93
2019-03-28T19:11:52.025Z,52.79
2019-03-28T19:16:01.001Z,52.79
2019-03-28T19:20:10.020Z,52.27
2019-03-28T19:24:18.660Z,52.46
2019-03-28T19:28:29.270Z,52.42
2019-03-28T19:32:37.137Z,53.87
2019-03-28T19:36:46.884Z,53.82
2019-03-28T19:40:56.421Z,53.31
2019-03-28T19:45:05.402Z,53.76
2019-03-28T19:49:13.694Z,55.15
2019-03-28T19:53:22.604Z,54.08
2019-03-28T19:57:31.057Z,53.66
2019-03-28T20:01:39.387Z,54.65
2019-03-28T20:05:50.109Z,54.43
2019-03-28T20:09:58.784Z,54.25
2019-03-28T20:14:07.563Z,54.67
2019-03-28T20:18:16.136Z,54.45
2019-03-28T20:22:24.577Z,54.08
2019-03-28T20:26:34.003Z,54.01
2019-03-28T20:30:42.412Z,53.89
2019-03-28T20:34:50.664Z,54.52
2019-03-28T20:39:04.122Z,55.04
2019-03-28T20:43:10.900Z,54.76
2019-03-28T20:47:19.296Z,55.03
2019-03-28T20:51:28.133Z,54.58
2019-03-28T20:55:36.566Z,55.43
2019-03-28T20:59:46.886Z,54.55
2019-03-28T21:03:56.083Z,54.65
2019-03-28T21:08:05.190Z,54.67
2019-03-28T21:12:13.545Z,54.20
2019-03-28T21:16:22.376Z,54.78
2019-03-28T21:20:30.705Z,55.31
2019-03-28T21:24:39.624Z,54.87
2019-03-28T21:28:48.558Z,55.31
2019-03-28T21:32:57.879Z,55.60
2019-03-28T21:37:06.956Z,55.09
2019-03-28T21:41:16.716Z,55.79
2019-03-28T21:45:24.928Z,55.56
2019-03-28T21:49:33.347Z,55.03
2019-03-28T21:53:41.683Z,55.24
2019-03-28T21:57:49.991Z,54.94
2019-03-28T22:01:58.979Z,54.72
2019-03-28T22:06:07.265Z,55.16
2019-03-28T22:10:16.981Z,54.41
2019-03-28T22:14:26.051Z,55.65
2019-03-28T22:18:34.258Z,56.09
2019-03-28T22:22:43.600Z,55.30
2019-03-28T22:26:52.014Z,54.79
2019-03-28T22:31:00.270Z,55.76
2019-03-28T22:35:10.492Z,55.43
2019-03-28T22:39:18.922Z,56.14
2019-03-28T22:43:27.236Z,56.12
2019-03-28T22:47:36.087Z,56.52
2019-03-28T22:51:44.739Z,55.37
2019-03-28T22:55:53.043Z,56.71
2019-03-28T23:00:04.263Z,57.42
2019-03-28T23:04:13.197Z,56.27
2019-03-28T23:08:21.403Z,56.12
2019-03-28T23:12:30.324Z,57.15
2019-03-28T23:16:38.562Z,57.10
2019-03-28T23:20:47.603Z,56.91
2019-03-28T23:24:56.128Z,56.22
2019-03-28T23:29:04.360Z,55.69
2019-03-28T23:33:13.263Z,56.90
2019-03-28T23:37:24.979Z,56.26
2019-03-28T23:41:31.851Z,55.63
2019-03-28T23:45:40.493Z,56.75
2019-03-28T23:49:50.145Z,56.14
2019-03-28T23:53:58.485Z,56.11
2019-03-28T23:58:07.219Z,56.01
